德鲁大叔(2018)

Uncle Drew/街頭祖霸王(港)

更新:2019-03-20
年份: 2018 / 地区: 美国
类型: 喜剧 / 豆瓣:7.7分 / IMDB:5.7分
导演: 查尔斯·斯通三世
演员: 凯里·欧文 里尔·莱尔·哈瓦瑞 沙奎尔·奥尼尔 克里斯·韦伯
语言:英语 / 片长:103
上映时间:2018-06-29(美国)
德鲁大叔剧情介绍

德鲁大叔是一部喜剧片,今年早些时候曾有媒体爆出凯里·欧文的短片《德鲁大叔》将改编成长片电影,今日又有媒体传出"大鲨鱼"沙奎尔·奥尼尔将加盟该片。 电影将讲述一群厉害的老年篮球运动员,违反参赛资格,参加著名的洛克锦标赛,在赛场上老大爷球场狂虐小年轻,让人“目瞪狗呆”的故事。 同名短片主要在YouTube之类的平台上播放,主题是暮年的老大爷大妈重回球场,找回青春,和百事可乐一起享受篮球的快乐。片子一共四部,第一部欧文自己出演,第二部邀请了骑士队队友凯文乐福,第三部邀请了玛雅·摩尔和特·罗宾逊,最后一部是和雷·阿伦飚三分。NBA指环王比尔·拉塞尔串场。这几部片子虽然内容稍有不同,不过套路一样。 短片在各大影视网站上获得很高的评价,消息来源说,这个项目将由众多明星加盟,其中不乏其他几名顶尖的NBA球员,具体还有谁还不可知。 Howery曾在《逃出绝命镇》中有出色表演,会在其中扮演一个喜欢篮球的年轻人,寻找德鲁大叔的帮助。 影片将由狮门影业出品,马蒂·鲍文和威克·戈弗雷担任制片,《绝地逃亡》编剧Jay Longino参与剧本创作。影片上映日期未定。

After draining his life savings to enter a team in the Rucker Classic street ball tournament in Harlem, Dax (Lil Rel Howery) is dealt a series of unfortunate setbacks, including losing his team to his longtime rival (Nick Kroll). Desperate to win the tournament and the cash prize, Dax stumbles upon the man, the myth, the legend UNCLE DREW (NBA All-Star Kyrie Irving) and convinces him to return to the court one more time. The two men embark on a road trip to round up Drew's old basketball squad (Shaquille O'Neal, Chris Webber, Reggie Miller, Nate Robinson, and Lisa Leslie) and prove that a group of septuagenarians can still win the big one. After a successful five years as a fan-favorite digital episodic series, originally conceived by Pepsi, UNCLE DREW, will hit theaters June 29, 2018. UNCLE DREW is a Summit Entertainment release produced by Temple Hill in association with PepsiCo's Creators League Studios.

一句话评论:一堆被篮球事业耽误的演员。lrving。

德鲁大叔剧照
德鲁大叔资源下载
下载信息 大小 日期 下载
德鲁大叔.2018.1080p.中英字幕£CMCT无尽 7.78GB 2019-01-16
Uncle Drew 2018 1080p WEB-DL DD 5.1 x264 [MW] 2.04GB 2018-12-17
Uncle Drew 2018 1080p BluRay x264 DTS 5. 1 MSubS - Hon3yHD 4.40 GB 2018-10-30
德鲁大叔.特效中英字幕.Uncle.Drew.2018.BD1080P.X265.AAC.English.CHS.ENG-虾狐... 2.46GB 2018-10-30
德鲁大叔.Uncle.Drew.2018.1080p.BluRay.英语双字.@最新高分电影推送.mp4 3.03GB 2018-10-30
Uncle.Drew.2018.BD1080P.X264.AAC.English.CHS-ENG.52movieba 2.81 GB 2018-10-30
德鲁大叔.Uncle.Drew.2018.BD1080P.AAC.x264.English.CHS-ENG.BTDX8 4.02 GB 2018-10-30
德鲁大叔.Uncle.Drew.2018.1080p.BluRay.x264.CHS.ENG-BTxiaba&远鉴字幕组 3.37GB 2018-10-30
德鲁大叔.Uncle.Drew.2018.BD1080P.X264.AAC.English.CHS-ENG.BTEE 5.04 GB 2018-10-30
Uncle.Dew.2018.1080p.Blu-ray.x264.Atmos.7.1-DTOne 10.67GB 2018-10-30
德鲁大叔.Uncle.Drew.2018.BD-1080p.X264.AAC.CHS.ENG-99Mp4.mp4 2.32 GB 2018-10-30
Uncle.Drew.2018.1080p.BluRay.AVC.TrueHD.7.1.Atmos-FGT 45.94GB 2018-10-30
Uncle.Drew.2018.1080p.BluRay.REMUX.AVC.DTS-HD.MA.TrueHD.7.1.Atmos-F... 24.85 GB 2018-10-30
Uncle.Drew.2018.1080p.BluRay.x264.DTS-HD.MA.7.1-FGT 10.27GB 2018-10-30
Uncle.Drew.2018.1080p.BluRay.x264.TrueHD.7.1.Atmos-FGT 10.9GB 2018-10-30
Uncle.Drew.2018.1080p.BluRay.x264-GECKOS[TGx] 7.72 GB 2018-10-30
Uncle.Drew2018.1080p.BluRay.x264-GECKOS.Dual.Audio-KBO 7.97GB 2018-10-30
Uncle.Drew.2018.1080p.AMZN.WEB-DL.DDP5.1.H.264-NTG[TGx] 5.99 GB 2018-10-30
Uncle Drew.2018.1080p.BRRip.x264.AAC.5.1.-.Hon3yHD 2.02GB 2018-10-30
Uncle.Drew.2018.1080p.BluRay.x264-GECKOS[EtHD] 7.75 GB 2018-10-30
Uncle Drew.2018.1080p.WEB-DL.x264.AAC.5.1.-.Hon3yHD 2.02 GB 2018-10-30
Uncle.Drew.2018.1080p.WEB-DL.X264.AC3-EVO[TGx] 3.47 GB 2018-10-30
Uncle.Drew.2018.1080p.BluRay.H264.AAC-RARBG 2GB 2018-10-30
Uncle.Drew.2018.BluRay.1080p.Atmos.TrueHD7.1.x265.10bit-CHD 7.93GB 2018-10-30
Uncle.Drew.2018.BluRay.1080p.Atmos.TrueHD7.1.x264-CHD 10.36GB 2018-10-30
Uncle.Drew.2018.BluRay.1080p.Atmos.TrueHD7.1.x265.10bit-CHD 7.93GB 2018-10-30
Uncle.Drew.2018.BluRay.1080p.Atmos.TrueHD7.1.x264-CHD 10.36GB 2018-10-30
德鲁大叔 Uncle Drew 2018 BD1080P.x264.中英双字幕.eng.chs.aac 2.27 GB 2018-10-30
Uncle.Drew.2018.1080p.BluRay.x264-GECKOS[rarbg] 7.68GB 2018-10-30
Uncle.Drew.2018.1080p.BluRay.H264.AAC-RARBG 2GB 2018-10-30
Uncle.Drew.2018.1080p.BluRay.x264-GECKOS 7.68GB 2018-10-30
德鲁大叔.Uncle.Drew.2018.1080p.AMZN.WEBRip.DDP5.1.x264.CHS.ENG-BTxiab 2.86 GB 2018-10-30
Uncle.Drew.2018.1080p.WEB-DL.X264.AC3-EVO[EtHD] 3.47GB 2018-10-30
Uncle.Drew.2018.1080p.AMZN.WEBRip.DDP5.1.x264-NTG 5.98GB 2018-10-30
德鲁大叔.Uncle.Drew.2018.中英字幕.WEBrip.AAC.1080p.x264-远鉴&弯弯字幕组 1.91GB 2018-10-30
Uncle.Drew.2018.1080p.WEB-DL.X264.AC3-EVO 3.47GB 2018-10-30
德鲁大叔.Uncle.Drew.2018.HD1080P.X264.AAC.English.CHS-ENG.mp4 2.44GB 2018-10-30
【德鲁大叔】【WEBRip 1080p】【5.98 GB】【Uncle.Drew.2018.1080p.AMZN.WEBRip 5.98GB 2018-10-30
下载信息 大小 日期 下载
德鲁大叔 uncle.drew.2018.bluray.720p.x264.ac3[xiepp.com] 1.99GB 2018-11-14
德鲁大叔.Uncle.Drew.2018.BD720P.AAC.x264.English.CHS-ENG.BTDX8 2.26GB 2018-10-30
[德鲁大叔 Uncle.Drew][BluRay-720P.MKV][2.2GB][中英字幕] 2.23GB 2018-10-30
德鲁大叔.Uncle.Drew.2018.BD720P.X264.AAC.English.CHS-ENG.BTEE 2.12GB 2018-10-30
德鲁大叔.2018.BDrip.720P.X264.AAC.CHS.mp4 1.22GB 2018-10-30
Uncle.Drew.2018.720p.AMZN.WEB-DL.DDP5.1.H.264-NTG[TGx] 2.67GB 2018-10-30
Uncle Drew.2018.720p.BRRip.x264.AAC.-.Hon3yHD 792.22MB 2018-10-30
Uncle.Drew.2018.720p.WEB-DL.X264.AC3-EVO[TGx] 2.39GB 2018-10-30
Uncle.Drew.2018.720p.BluRay.x264-GECKOS[TGx] 4.41GB 2018-10-30
Uncle Drew.2018.720p.WEB-DL.x264.AAC.-.Hon3yHD 794.36 MB 2018-10-30
Uncle Drew 2018 720p BluRay HEVC x265-RMTeam 982.95MB 2018-10-30
Uncle.Drew.2018.AMZN.WEBRip.AAC2.0.x264-NTG 1.35 GB 2018-10-30
Uncle.Drew.2018.BDRip.x264-GECKOS 1.02 GB 2018-10-30
Uncle.Drew.2018.720p.BRRip.XviD.AC3-XVID 3.23GB 2018-10-30
Uncle.Drew.2018.720p.BluRay.H264.AAC-RARBG 1.28GB 2018-10-30
Uncle.Drew.2018.720p.BluRay.x264-GECKOS[rarbg] 4.4GB 2018-10-30
Uncle.Drew.2018.720p.BRRip.XviD.AC3-XVID 3.23GB 2018-10-30
Uncle.Drew.2018.720p.BluRay.H264.AAC-RARBG 1.28GB 2018-10-30
Uncle.Drew.2018.720p.BluRay.x264-GECKOS 4.40 GB 2018-10-30
Uncle.Drew.2018.720p.WEB-DL.X264.AC3-EVO[EtHD] 2.39GB 2018-10-30
Uncle.Drew.2018.720p.AMZN.WEBRip.DDP5.1.x264-NTG 2.67GB 2018-10-30
【德鲁大叔】【WEBRip 720p】【2.67 GB】【Uncle.Drew.2018.720p.AMZN.WEBRip.D... 2.67GB 2018-10-30
Uncle.Drew.2018.720p.WEB-DL.X264.AC3-EVO 2.39GB 2018-10-30
下载信息 大小 日期 下载
下载信息 大小 日期 下载
德鲁大叔bd国语中字.mp4 701.03MB 2019-03-20
德鲁大叔bd英语中字.mp4 701.78MB 2019-03-20
Uncle.Drew.2018.2160p.BluRay.x264.8bit.SDR.DTS-HD.MA.TrueHD.7.1.Atmos-S 32.8GB 2019-01-16
德鲁大叔.2018.中英字幕£CMCT无尽 3.21GB 2019-01-16
Uncle.Drew.2018.BDRip.x264-GECKOS 1.02GB 2018-12-17
Uncle.Drew.2018.2160p.BluRay.HEVC.TrueHD.7.1.Atmos-WhiteRhino 81.88GB 2018-10-30
Uncle.Drew.2018.2160p.UHD.BluRay.X265.10bit.HDR.TrueHD.7.1.Atmos-WhiteRhi 13.73GB 2018-10-30
Uncle.Drew.2018.2160p.BluRay.x264.8bit.SDR.DTS-HD.MA.TrueHD.7.1.Atmos-S 32.8GB 2018-10-30
Uncle.Drew.2018.2160p.BluRay.REMUX.HEVC.DTS-HD.MA.TrueHD.7.1.Atmos 60.64GB 2018-10-30
Uncle Drew 2018 Movies HDRip x264 5.1 ESubs with Sample ☻rDX☻ 846.81MB 2018-10-30
Uncle Drew 2018 Movies HDRip x264 AAC ESubs with Sample ☻rDX☻ 705.78MB 2018-10-30
Uncle.Drew.2018.HDRip.AC3.X264-CMRG[TGx] 1.32GB 2018-10-30
Uncle.Drew.2018.BRRip.AC3.X264-CMRG[TGx] 1.47 GB 2018-10-30
Uncle.Drew.2018.AMZN.WEB-DL.AAC2.0.H.264-NTG[TGx] 1.35GB 2018-10-30
Uncle.Drew.2018.BRRip.XviD.AC3-EVO[TGx] 1.4GB 2018-10-30
Uncle.Drew.2018.BDRip.x264-GECKOS[TGx] 1.02GB 2018-10-30
Uncle.Drew.2018.BRRip.XviD.MP3-XVID 1.33 GB 2018-10-30
Uncle.Drew.2018.BRRip.XviD.AC3-XVID 1.51GB 2018-10-30
Uncle Drew 2018 Movies DVDRip x264 AAC with Sample ☻rDX☻ 705.86MB 2018-10-30
Uncle Drew 2018 Movies DVDRip x264 5.1 with Sample ☻rDX☻ 847.11 MB 2018-10-30
Uncle.Drew.2018.DVDRip.550MB 549.00 MB 2018-10-30
Uncle Drew 2018.2018.DVDRip.x264.AAC.-.Hon3yHD 821.28MB 2018-10-30
Uncle.Drew.2018.DVDRip.XviD.AC3-EVO[TGx] 1.45GB 2018-10-30
Uncle.Drew.2018.DVDRip.XviD.AC3-EVO 1.45GB 2018-10-30
德鲁大叔.Uncle.Drew.2018.DVD.X264.AAC.English.CHS-ENG.mp4 1.73GB 2018-10-30
Uncle.Drew.2018.CAM-MaTinE 1.73 GB 2018-10-30
Uncle.Drew.2018.CAM-MaTinE[TGx] 1.73 GB 2018-10-30
Uncle Drew 2018 Movies HD Cam x264 AAC Clean Audio New +Sample ☻ 705.37 MB 2018-10-30
德鲁大叔.2018.中英字幕£CMCT无尽 3.21GB 2018-10-28
字幕信息 语言 来源 下载
【蓝光原盘适用】德鲁大叔 Uncle Drew.2018.Bluray.1080p.英语.中英.小寒制作.ass 简体中文字幕,English字幕,双语字幕
德鲁大叔(简繁字幕)Uncle.Drew.2018.1080p.BluRay.x264-GECKOS.zip 简体中文字幕,繁體中文字幕 转载/未知/其他
【远鉴字幕组&弯弯字幕组】德鲁大叔 Uncle.Drew.2018.1080p.BluRay.x264-GECKOS 简体中文字幕,English字幕,双语字幕